createdAt,value
2022-09-12T00:01:13.791Z,101842.16
2022-09-12T00:03:44.001Z,101843.91
2022-09-12T00:06:20.420Z,101837.72
2022-09-12T00:08:52.119Z,101841.25
2022-09-12T00:11:21.729Z,101843.88
2022-09-12T00:13:54.587Z,101845.69
2022-09-12T00:16:26.557Z,101842.19
2022-09-12T00:18:56.429Z,101844.81
2022-09-12T00:21:26.403Z,101843.00
2022-09-12T00:23:56.718Z,101838.53
2022-09-12T00:26:26.341Z,101838.50
2022-09-12T00:28:58.940Z,101839.34
2022-09-12T00:31:30.183Z,101836.69
2022-09-12T00:34:02.685Z,101836.69
2022-09-12T00:36:33.360Z,101834.13
2022-09-12T00:39:03.660Z,101836.75
2022-09-12T00:41:35.920Z,101831.56
2022-09-12T00:44:35.329Z,101830.69
2022-09-12T00:47:13.462Z,101822.81
2022-09-12T00:49:48.636Z,101822.88
2022-09-12T00:52:21.813Z,101819.31
2022-09-12T00:54:56.815Z,101824.69
2022-09-12T00:57:32.386Z,101812.41
2022-09-12T01:00:07.454Z,101808.03
2022-09-12T01:02:39.800Z,101805.41
2022-09-12T01:05:10.904Z,101810.75
2022-09-12T01:07:41.251Z,101807.31
2022-09-12T01:10:12.511Z,101809.06
2022-09-12T01:12:45.045Z,101805.53
2022-09-12T01:15:15.394Z,101806.41
2022-09-12T01:17:57.622Z,101806.44
2022-09-12T01:20:47.922Z,101795.88
2022-09-12T01:23:47.626Z,101807.31
2022-09-12T01:26:38.449Z,101799.38
2022-09-12T01:29:25.401Z,101800.25
2022-09-12T01:32:08.125Z,101796.72
2022-09-12T01:34:47.531Z,101790.53
2022-09-12T01:37:22.534Z,101794.03
2022-09-12T01:40:01.473Z,101794.00
2022-09-12T01:42:37.073Z,101786.94
2022-09-12T01:45:14.882Z,101795.72
2022-09-12T01:47:52.810Z,101781.63
2022-09-12T01:50:25.744Z,101780.75
2022-09-12T01:52:59.958Z,101775.44
2022-09-12T01:55:34.142Z,101773.66
2022-09-12T01:58:08.628Z,101763.97
2022-09-12T02:00:45.358Z,101766.63
2022-09-12T02:03:21.871Z,101763.97
2022-09-12T02:05:57.587Z,101758.72
2022-09-12T02:08:32.049Z,101766.59
2022-09-12T02:11:07.386Z,101756.00
2022-09-12T02:13:40.892Z,101756.84
2022-09-12T02:16:13.451Z,101759.53
2022-09-12T02:18:49.935Z,101752.47
2022-09-12T02:21:22.280Z,101751.53
2022-09-12T02:23:59.741Z,101748.00
2022-09-12T02:26:34.096Z,101744.47
2022-09-12T02:29:03.944Z,101730.38
2022-09-12T02:31:39.640Z,101739.19
2022-09-12T02:34:29.678Z,101732.13
2022-09-12T02:37:08.606Z,101732.13
2022-09-12T02:39:42.101Z,101732.97
2022-09-12T02:42:14.842Z,101736.50
2022-09-12T02:44:45.518Z,101733.00
2022-09-12T02:47:21.990Z,101735.66
2022-09-12T02:49:55.390Z,101730.34
2022-09-12T02:52:25.481Z,101727.72
2022-09-12T02:54:55.420Z,101730.41
2022-09-12T02:57:25.238Z,101728.69
2022-09-12T02:59:58.502Z,101734.84
2022-09-12T03:02:34.767Z,101726.97
2022-09-12T03:05:29.702Z,101718.16
2022-09-12T03:08:37.350Z,101712.88
2022-09-12T03:11:28.436Z,101706.75
2022-09-12T03:14:09.383Z,101701.50
2022-09-12T03:16:47.766Z,101705.03
2022-09-12T03:19:25.571Z,101700.63
2022-09-12T03:22:08.311Z,101699.75
2022-09-12T03:24:41.422Z,101699.75
2022-09-12T03:27:19.717Z,101699.75
2022-09-12T03:29:51.510Z,101699.75
2022-09-12T03:32:21.083Z,101695.31
2022-09-12T03:34:50.694Z,101695.31
2022-09-12T03:37:22.944Z,101699.72
2022-09-12T03:39:52.496Z,101698.81
2022-09-12T03:42:22.181Z,101701.47
2022-09-12T03:44:51.812Z,101700.56
2022-09-12T03:47:21.379Z,101697.91
2022-09-12T03:49:52.575Z,101694.34
2022-09-12T03:52:25.429Z,101696.13
2022-09-12T03:54:55.777Z,101692.59
2022-09-12T03:57:25.475Z,101701.38
2022-09-12T03:59:55.253Z,101694.31
2022-09-12T04:02:25.498Z,101695.19
2022-09-12T04:04:55.374Z,101687.25
2022-09-12T04:07:27.526Z,101692.50
2022-09-12T04:09:57.097Z,101692.50
2022-09-12T04:12:26.625Z,101686.31
2022-09-12T04:14:56.728Z,101688.91
2022-09-12T04:17:26.359Z,101689.78
2022-09-12T04:19:56.659Z,101688.00
2022-09-12T04:22:30.019Z,101681.84
2022-09-12T04:25:00.284Z,101689.72
2022-09-12T04:27:31.084Z,101687.06
2022-09-12T04:30:02.275Z,101691.44
2022-09-12T04:32:33.631Z,101686.16
2022-09-12T04:35:03.290Z,101694.06
2022-09-12T04:37:35.594Z,101690.47
2022-09-12T04:40:06.102Z,101691.31
2022-09-12T04:42:35.746Z,101698.34
2022-09-12T04:45:06.389Z,101690.34
2022-09-12T04:47:35.968Z,101693.84
2022-09-12T04:50:05.802Z,101691.13
2022-09-12T04:52:37.948Z,101692.84
2022-09-12T04:55:08.694Z,101696.31
2022-09-12T04:57:38.790Z,101703.28
2022-09-12T05:00:13.763Z,101697.91
2022-09-12T05:02:43.516Z,101692.56
2022-09-12T05:05:13.689Z,101696.88
2022-09-12T05:07:45.961Z,101700.31
2022-09-12T05:10:15.833Z,101690.63
2022-09-12T05:12:45.508Z,101691.50
2022-09-12T05:15:15.194Z,101695.00
2022-09-12T05:17:44.935Z,101695.91
2022-09-12T05:20:15.386Z,101692.34
2022-09-12T05:22:47.614Z,101685.31
2022-09-12T05:25:17.345Z,101687.03
2022-09-12T05:27:50.463Z,101672.94
2022-09-12T05:30:20.587Z,101676.50
2022-09-12T05:32:50.242Z,101675.59
2022-09-12T05:35:20.147Z,101672.09
2022-09-12T05:37:52.658Z,101665.09
2022-09-12T05:40:22.414Z,101667.75
2022-09-12T05:42:52.125Z,101664.25
2022-09-12T05:45:21.758Z,101666.03
2022-09-12T05:47:51.609Z,101668.66
2022-09-12T05:50:21.383Z,101667.78
2022-09-12T05:52:55.532Z,101672.22
2022-09-12T05:55:26.853Z,101678.34
2022-09-12T05:57:56.686Z,101680.06
2022-09-12T06:00:29.302Z,101679.19
2022-09-12T06:03:01.579Z,101681.88
2022-09-12T06:05:33.277Z,101682.00
2022-09-12T06:08:05.872Z,101693.53
2022-09-12T06:10:35.440Z,101684.00
2022-09-12T06:13:05.138Z,101682.38
2022-09-12T06:15:35.625Z,101680.72
2022-09-12T06:18:05.491Z,101677.38
2022-09-12T06:20:35.758Z,101668.66
2022-09-12T06:23:08.012Z,101667.88
2022-09-12T06:25:37.542Z,101658.25
2022-09-12T06:28:08.532Z,101659.22
2022-09-12T06:30:38.149Z,101660.19
2022-09-12T06:33:07.779Z,101654.09
2022-09-12T06:35:39.208Z,101665.56
2022-09-12T06:38:11.781Z,101670.06
2022-09-12T06:40:45.208Z,101664.84
2022-09-12T06:43:16.527Z,101656.94
2022-09-12T06:45:52.329Z,101662.28
2022-09-12T06:48:22.043Z,101665.88
2022-09-12T06:51:00.270Z,101668.63
2022-09-12T06:53:33.728Z,101662.53
2022-09-12T06:56:05.107Z,101673.19
2022-09-12T06:58:35.039Z,101670.59
2022-09-12T07:01:06.064Z,101672.38
2022-09-12T07:03:36.292Z,101677.75
2022-09-12T07:06:07.311Z,101669.81
2022-09-12T07:08:41.130Z,101671.56
2022-09-12T07:11:15.725Z,101683.97
2022-09-12T07:13:47.219Z,101668.94
2022-09-12T07:16:19.964Z,101668.94
2022-09-12T07:18:54.074Z,101668.91
2022-09-12T07:21:24.207Z,101675.06
2022-09-12T07:23:58.043Z,101675.00
2022-09-12T07:26:29.918Z,101674.03
2022-09-12T07:29:25.224Z,101671.25
2022-09-12T07:31:51.307Z,101678.31
2022-09-12T07:34:20.969Z,101671.97
2022-09-12T07:36:50.476Z,101667.28
2022-09-12T07:39:23.106Z,101670.56
2022-09-12T07:41:52.653Z,101675.88
2022-09-12T07:44:23.042Z,101665.34
2022-09-12T07:46:53.274Z,101666.34
2022-09-12T07:49:22.931Z,101680.41
2022-09-12T07:51:53.292Z,101678.44
2022-09-12T07:54:26.806Z,101677.50
2022-09-12T07:56:56.931Z,101673.09
2022-09-12T07:59:50.787Z,101677.31
2022-09-12T08:02:17.774Z,101670.84
2022-09-12T08:04:48.395Z,101671.00
2022-09-12T08:07:19.279Z,101675.97
2022-09-12T08:09:53.592Z,101673.03
2022-09-12T08:12:23.186Z,101672.88
2022-09-12T08:14:52.827Z,101671.97
2022-09-12T08:17:22.562Z,101673.25
2022-09-12T08:19:52.725Z,101673.34
2022-09-12T08:22:23.033Z,101670.97
2022-09-12T08:24:55.600Z,101667.13
2022-09-12T08:27:25.474Z,101663.53
2022-09-12T08:29:55.683Z,101668.53
2022-09-12T08:32:25.649Z,101675.47
2022-09-12T08:34:55.582Z,101669.50
2022-09-12T08:37:25.789Z,101675.72
2022-09-12T08:39:58.244Z,101669.50
2022-09-12T08:42:49.378Z,101676.59
2022-09-12T08:45:25.476Z,101657.28
2022-09-12T08:47:55.919Z,101661.78
2022-09-12T08:50:26.029Z,101668.06
2022-09-12T08:52:59.799Z,101664.16
2022-09-12T08:55:44.031Z,101660.50
2022-09-12T08:58:17.457Z,101665.56
2022-09-12T09:00:51.330Z,101656.84
2022-09-12T09:03:51.106Z,101665.28
2022-09-12T09:06:35.222Z,101663.81
2022-09-12T09:09:13.015Z,101663.16
2022-09-12T09:11:59.142Z,101657.44
2022-09-12T09:14:53.569Z,101654.69
2022-09-12T09:17:29.295Z,101651.94
2022-09-12T09:20:06.098Z,101645.03
2022-09-12T09:25:10.801Z,101642.16
2022-09-12T09:27:48.739Z,101640.41
2022-09-12T09:30:23.620Z,101640.53
2022-09-12T09:32:55.700Z,101630.19
2022-09-12T09:35:36.621Z,101626.50
2022-09-12T09:38:20.345Z,101630.97
2022-09-12T09:40:58.935Z,101624.00
2022-09-12T09:43:31.398Z,101617.81
2022-09-12T09:46:01.827Z,101613.19
2022-09-12T09:48:34.564Z,101611.84
2022-09-12T09:51:07.224Z,101606.69
2022-09-12T09:53:41.549Z,101605.19
2022-09-12T09:56:21.496Z,101606.38
2022-09-12T09:58:55.673Z,101612.00
2022-09-12T10:01:25.366Z,101604.56
2022-09-12T10:03:56.568Z,101599.28
2022-09-12T10:06:30.955Z,101595.75
2022-09-12T10:09:25.649Z,101597.69
2022-09-12T10:11:56.995Z,101597.72
2022-09-12T10:14:44.102Z,101595.50
2022-09-12T10:17:34.355Z,101597.72
2022-09-12T10:20:20.555Z,101583.56
2022-09-12T10:22:52.055Z,101581.97
2022-09-12T10:25:23.097Z,101580.91
2022-09-12T10:27:59.075Z,101577.50
2022-09-12T10:30:31.655Z,101567.00
2022-09-12T10:33:11.397Z,101571.28
2022-09-12T10:35:51.352Z,101572.88
2022-09-12T10:38:26.740Z,101580.22
2022-09-12T10:41:04.337Z,101582.28
2022-09-12T10:43:38.692Z,101584.84
2022-09-12T10:46:34.637Z,101580.94
2022-09-12T10:49:38.221Z,101586.06
2022-09-12T10:52:23.917Z,101572.13
2022-09-12T10:54:53.881Z,101568.94
2022-09-12T10:57:53.451Z,101575.63
2022-09-12T11:00:28.091Z,101574.63
2022-09-12T11:03:13.466Z,101580.66
2022-09-12T11:05:55.536Z,101569.00
2022-09-12T11:08:53.518Z,101570.56
2022-09-12T11:11:42.703Z,101571.31
2022-09-12T11:14:42.685Z,101558.47
2022-09-12T11:17:26.207Z,101563.72
2022-09-12T11:20:06.219Z,101566.81
2022-09-12T11:22:55.871Z,101558.72
2022-09-12T11:25:34.717Z,101560.44
2022-09-12T11:28:26.570Z,101552.78
2022-09-12T11:31:14.417Z,101555.75
2022-09-12T11:33:46.816Z,101551.84
2022-09-12T11:36:32.693Z,101562.69
2022-09-12T11:39:10.475Z,101561.31
2022-09-12T11:41:44.180Z,101557.22
2022-09-12T11:44:22.029Z,101550.25
2022-09-12T11:46:52.431Z,101541.75
2022-09-12T11:49:32.437Z,101555.09
2022-09-12T11:52:17.294Z,101547.47
2022-09-12T11:54:53.891Z,101536.97
2022-09-12T11:57:32.018Z,101536.81
2022-09-12T12:00:08.131Z,101536.19
2022-09-12T12:02:45.471Z,101534.50
2022-09-12T12:05:24.965Z,101534.59
2022-09-12T12:07:59.279Z,101524.72
2022-09-12T12:10:37.522Z,101520.31
2022-09-12T12:13:14.096Z,101515.63
2022-09-12T12:15:50.135Z,101516.81
2022-09-12T12:18:23.168Z,101519.91
2022-09-12T12:20:53.917Z,101512.22
2022-09-12T12:23:34.934Z,101519.88
2022-09-12T12:26:06.426Z,101514.63
2022-09-12T12:29:03.021Z,101506.75
2022-09-12T12:31:32.711Z,101496.00
2022-09-12T12:34:28.820Z,101503.75
2022-09-12T12:36:59.216Z,101501.97
2022-09-12T12:40:05.902Z,101509.56
2022-09-12T12:43:07.637Z,101506.94
2022-09-12T12:46:14.579Z,101494.00
2022-09-12T12:48:58.321Z,101493.75
2022-09-12T12:51:51.400Z,101497.28
2022-09-12T12:54:33.298Z,101486.91
2022-09-12T12:57:09.303Z,101483.50
2022-09-12T12:59:50.150Z,101479.69
2022-09-12T13:02:25.385Z,101492.13
2022-09-12T13:04:56.630Z,101491.63
2022-09-12T13:07:32.854Z,101485.38
2022-09-12T13:10:04.010Z,101490.13
2022-09-12T13:12:36.841Z,101482.88
2022-09-12T13:15:50.649Z,101478.25
2022-09-12T13:18:26.322Z,101475.00
2022-09-12T13:21:01.862Z,101469.75
2022-09-12T13:23:35.358Z,101460.09
2022-09-12T13:26:05.655Z,101465.06
2022-09-12T13:28:38.098Z,101461.16
2022-09-12T13:31:18.928Z,101453.16
2022-09-12T13:33:51.407Z,101437.59
2022-09-12T13:36:37.130Z,101432.25
2022-09-12T13:39:17.758Z,101442.41
2022-09-12T13:42:13.180Z,101433.88
2022-09-12T13:44:47.525Z,101431.63
2022-09-12T13:47:31.038Z,101423.22
2022-09-12T13:50:01.534Z,101424.84
2022-09-12T13:52:34.559Z,101413.63
2022-09-12T13:55:09.092Z,101414.50
2022-09-12T13:57:41.494Z,101416.28
2022-09-12T14:00:20.115Z,101396.69
2022-09-12T14:03:13.479Z,101408.06
2022-09-12T14:05:44.719Z,101408.53
2022-09-12T14:08:16.979Z,101401.00
2022-09-12T14:10:50.554Z,101408.59
2022-09-12T14:13:23.496Z,101405.22
2022-09-12T14:15:55.312Z,101402.06
2022-09-12T14:18:29.461Z,101414.19
2022-09-12T14:21:01.389Z,101410.91
2022-09-12T14:23:33.498Z,101411.53
2022-09-12T14:26:08.373Z,101399.31
2022-09-12T14:28:38.643Z,101395.97
2022-09-12T14:31:10.627Z,101412.41
2022-09-12T14:33:53.689Z,101409.78
2022-09-12T14:36:27.403Z,101391.66
2022-09-12T14:39:01.781Z,101395.53
2022-09-12T14:41:34.167Z,101392.41
2022-09-12T14:44:08.416Z,101385.03
2022-09-12T14:46:39.789Z,101381.66
2022-09-12T14:49:18.821Z,101388.34
2022-09-12T14:51:57.578Z,101382.78
2022-09-12T14:54:42.931Z,101388.41
2022-09-12T14:57:35.251Z,101391.47
2022-09-12T15:00:22.461Z,101394.63
2022-09-12T15:02:52.807Z,101394.47
2022-09-12T15:05:30.502Z,101381.81
2022-09-12T15:08:02.351Z,101383.31
2022-09-12T15:10:34.420Z,101369.94
2022-09-12T15:13:20.113Z,101368.50
2022-09-12T15:15:51.911Z,101363.59
2022-09-12T15:18:22.655Z,101366.63
2022-09-12T15:20:58.040Z,101376.28
2022-09-12T15:23:35.877Z,101364.78
2022-09-12T15:26:06.691Z,101364.28
2022-09-12T15:28:36.915Z,101366.28
2022-09-12T15:31:11.512Z,101366.31
2022-09-12T15:33:41.137Z,101353.91
2022-09-12T15:36:19.556Z,101360.47
2022-09-12T15:38:50.917Z,101356.84
2022-09-12T15:41:22.518Z,101367.34
2022-09-12T15:43:52.793Z,101360.84
2022-09-12T15:46:22.846Z,101354.31
2022-09-12T15:48:52.916Z,101354.16
2022-09-12T15:51:25.696Z,101355.41
2022-09-12T15:53:55.503Z,101351.03
2022-09-12T15:56:25.473Z,101347.34
2022-09-12T15:58:59.608Z,101340.44
2022-09-12T16:01:30.617Z,101332.44
2022-09-12T16:04:00.805Z,101328.13
2022-09-12T16:06:37.177Z,101325.03
2022-09-12T16:09:07.672Z,101328.19
2022-09-12T16:11:37.631Z,101316.63
2022-09-12T16:14:08.244Z,101303.91
2022-09-12T16:16:37.861Z,101304.97
2022-09-12T16:19:07.702Z,101282.94
2022-09-12T16:21:40.219Z,101287.78
2022-09-12T16:24:10.290Z,101281.22
2022-09-12T16:26:40.063Z,101279.75
2022-09-12T16:29:10.383Z,101274.81
2022-09-12T16:31:40.193Z,101276.16
2022-09-12T16:34:12.679Z,101273.63
2022-09-12T16:36:45.382Z,101279.06
2022-09-12T16:39:15.124Z,101273.94
2022-09-12T16:41:45.522Z,101280.41
2022-09-12T16:44:15.369Z,101288.66
2022-09-12T16:46:45.437Z,101284.34
2022-09-12T16:49:15.665Z,101281.31
2022-09-12T16:51:49.252Z,101276.06
2022-09-12T16:54:20.034Z,101276.72
2022-09-12T16:56:50.146Z,101274.28
2022-09-12T16:59:19.815Z,101270.97
2022-09-12T17:01:50.101Z,101272.88
2022-09-12T17:04:23.477Z,101271.44
2022-09-12T17:06:57.543Z,101262.53
2022-09-12T17:09:28.322Z,101255.25
2022-09-12T17:11:58.951Z,101264.44
2022-09-12T17:14:28.496Z,101266.22
2022-09-12T17:16:58.158Z,101264.81
2022-09-12T17:19:32.888Z,101263.16
2022-09-12T17:22:05.085Z,101262.44
2022-09-12T17:24:34.721Z,101264.34
2022-09-12T17:27:04.410Z,101264.59
2022-09-12T17:29:35.141Z,101260.31
2022-09-12T17:32:05.383Z,101269.56
2022-09-12T17:34:35.023Z,101264.41
2022-09-12T17:37:07.299Z,101261.16
2022-09-12T17:39:36.911Z,101258.94
2022-09-12T17:42:08.288Z,101272.34
2022-09-12T17:44:38.819Z,101277.06
2022-09-12T17:47:08.689Z,101278.22
2022-09-12T17:49:39.473Z,101267.66
2022-09-12T17:52:12.055Z,101267.78
2022-09-12T17:54:41.776Z,101275.16
2022-09-12T17:57:11.577Z,101273.75
2022-09-12T17:59:41.330Z,101270.44
2022-09-12T18:02:16.621Z,101275.94
2022-09-12T18:04:48.922Z,101271.78
2022-09-12T18:07:22.494Z,101263.91
2022-09-12T18:09:55.363Z,101274.03
2022-09-12T18:12:27.142Z,101276.91
2022-09-12T18:14:56.751Z,101272.00
2022-09-12T18:17:27.509Z,101275.72
2022-09-12T18:19:57.126Z,101261.78
2022-09-12T18:22:29.398Z,101261.94
2022-09-12T18:24:59.076Z,101254.03
2022-09-12T18:27:28.720Z,101244.50
2022-09-12T18:30:19.697Z,101244.63
2022-09-12T18:32:48.182Z,101245.66
2022-09-12T18:35:18.211Z,101238.75
2022-09-12T18:37:50.595Z,101229.94
2022-09-12T18:40:20.381Z,101233.81
2022-09-12T18:42:50.103Z,101242.81
2022-09-12T18:45:20.126Z,101234.09
2022-09-12T18:47:49.836Z,101235.09
2022-09-12T18:50:20.018Z,101228.00
2022-09-12T18:52:57.868Z,101217.56
2022-09-12T18:55:29.619Z,101222.16
2022-09-12T18:57:59.390Z,101230.16
2022-09-12T19:00:29.084Z,101235.56
2022-09-12T19:02:58.759Z,101243.63
2022-09-12T19:05:28.471Z,101242.78
2022-09-12T19:08:01.902Z,101246.47
2022-09-12T19:10:31.570Z,101251.03
2022-09-12T19:13:01.504Z,101252.88
2022-09-12T19:15:33.364Z,101255.59
2022-09-12T19:18:03.073Z,101257.41
2022-09-12T19:20:35.335Z,101269.06
2022-09-12T19:23:07.710Z,101266.47
2022-09-12T19:25:37.608Z,101262.97
2022-09-12T19:28:08.099Z,101259.41
2022-09-12T19:30:41.765Z,101249.69
2022-09-12T19:33:14.337Z,101248.88
2022-09-12T19:35:44.100Z,101243.66
2022-09-12T19:38:16.944Z,101238.41
2022-09-12T19:40:47.098Z,101234.97
2022-09-12T19:43:24.543Z,101240.34
2022-09-12T19:45:54.896Z,101246.66
2022-09-12T19:48:24.889Z,101237.00
2022-09-12T19:50:55.015Z,101224.63
2022-09-12T19:53:27.380Z,101232.72
2022-09-12T19:56:02.311Z,101223.16
2022-09-12T19:58:32.767Z,101232.09
2022-09-12T20:01:12.034Z,101217.97
2022-09-12T20:03:42.278Z,101233.97
2022-09-12T20:06:13.745Z,101237.56
2022-09-12T20:08:47.268Z,101229.66
2022-09-12T20:11:19.631Z,101227.97
2022-09-12T20:13:50.574Z,101233.34
2022-09-12T20:16:23.381Z,101229.88
2022-09-12T20:18:56.761Z,101229.91
2022-09-12T20:21:31.775Z,101238.88
2022-09-12T20:24:09.331Z,101235.41
2022-09-12T20:26:39.781Z,101238.16
2022-09-12T20:29:09.731Z,101235.56
2022-09-12T20:31:41.232Z,101232.09
2022-09-12T20:34:16.545Z,101228.63
2022-09-12T20:36:47.173Z,101235.78
2022-09-12T20:39:21.821Z,101236.75
2022-09-12T20:41:51.909Z,101224.38
2022-09-12T20:44:21.812Z,101225.31
2022-09-12T20:46:51.588Z,101223.53
2022-09-12T20:49:21.539Z,101220.91
2022-09-12T20:51:51.424Z,101216.50
2022-09-12T20:54:23.590Z,101220.06
2022-09-12T20:56:53.303Z,101229.81
2022-09-12T20:59:23.089Z,101222.69
2022-09-12T21:01:52.769Z,101228.03
2022-09-12T21:04:23.849Z,101220.09
2022-09-12T21:06:53.605Z,101209.41
2022-09-12T21:09:25.775Z,101207.63
2022-09-12T21:11:55.606Z,101212.06
2022-09-12T21:14:25.266Z,101220.88
2022-09-12T21:16:54.788Z,101216.47
2022-09-12T21:19:24.518Z,101207.63
2022-09-12T21:21:54.260Z,101213.78
2022-09-12T21:24:26.422Z,101217.34
2022-09-12T21:26:57.420Z,101219.16
2022-09-12T21:29:28.918Z,101224.47
2022-09-12T21:31:58.553Z,101228.00
2022-09-12T21:34:28.319Z,101231.56
2022-09-12T21:36:57.928Z,101244.84
2022-09-12T21:39:30.330Z,101245.72
2022-09-12T21:42:00.144Z,101247.50
2022-09-12T21:44:29.760Z,101244.84
2022-09-12T21:46:59.498Z,101243.06
2022-09-12T21:49:29.253Z,101243.97
2022-09-12T21:51:58.829Z,101247.50
2022-09-12T21:54:31.048Z,101245.75
2022-09-12T21:57:00.649Z,101231.56
2022-09-12T21:59:30.438Z,101236.94
2022-09-12T22:02:00.499Z,101229.00
2022-09-12T22:04:33.012Z,101222.84
2022-09-12T22:07:02.634Z,101225.56
2022-09-12T22:09:35.159Z,101210.53
2022-09-12T22:12:05.375Z,101210.53
2022-09-12T22:14:35.012Z,101206.16
2022-09-12T22:17:05.407Z,101212.38
2022-09-12T22:19:35.223Z,101208.84
2022-09-12T22:22:17.409Z,101204.44
2022-09-12T22:24:50.614Z,101200.03
2022-09-12T22:27:20.221Z,101200.94
2022-09-12T22:29:52.496Z,101196.53
2022-09-12T22:32:25.254Z,101191.22
2022-09-12T22:34:54.873Z,101187.66
2022-09-12T22:37:24.545Z,101187.69
2022-09-12T22:39:56.969Z,101184.13
2022-09-12T22:42:26.768Z,101180.63
2022-09-12T22:44:56.490Z,101173.56
2022-09-12T22:47:27.121Z,101167.38
2022-09-12T22:49:59.136Z,101166.47
2022-09-12T22:52:28.808Z,101167.38
2022-09-12T22:55:01.084Z,101162.06
2022-09-12T22:57:30.791Z,101167.38
2022-09-12T23:00:00.447Z,101170.94
2022-09-12T23:02:30.043Z,101168.28
2022-09-12T23:04:59.553Z,101170.97
2022-09-12T23:07:29.239Z,101169.22
2022-09-12T23:10:01.442Z,101171.00
2022-09-12T23:12:31.984Z,101165.72
2022-09-12T23:15:01.532Z,101156.88
2022-09-12T23:17:31.337Z,101157.78
2022-09-12T23:20:00.969Z,101156.03
2022-09-12T23:22:30.606Z,101157.78
2022-09-12T23:25:03.410Z,101149.81
2022-09-12T23:27:32.985Z,101155.13
2022-09-12T23:30:02.778Z,101148.09
2022-09-12T23:32:32.429Z,101147.22
2022-09-12T23:35:03.147Z,101156.06
2022-09-12T23:37:32.787Z,101152.53
2022-09-12T23:40:05.705Z,101143.66
2022-09-12T23:42:35.309Z,101145.47
2022-09-12T23:45:04.967Z,101139.28
2022-09-12T23:47:34.581Z,101141.94
2022-09-12T23:50:04.249Z,101148.97
2022-09-12T23:52:34.190Z,101133.97
2022-09-12T23:55:07.386Z,101136.59
2022-09-12T23:57:36.922Z,101133.91
